Time;durP1;ratioP1;P1;durP2;ratioP2;P2;SDS_P1;SDS_P2;PMS_P1;PMS_P2;Temp;Humidity;BMP_temperature;BMP_pressure;BME280_temperature;BME280_humidity;BME280_pressure;Samples;Min_cycle;Max_cycle;Signal;HPM_P1;HPM_P2
2023/06/05 00:00:06;;;;;;;6.38;1.05;;;16.10;99.90;;;;;;5056764;28;20087;-59
2023/06/05 00:02:34;;;;;;;5.93;0.93;;;16.20;99.90;;;;;;5081561;28;20020;-59
2023/06/05 00:05:02;;;;;;;6.38;2.08;;;16.30;99.90;;;;;;5078744;28;20090;-59
2023/06/05 00:07:30;;;;;;;3.95;0.93;;;16.40;99.90;;;;;;5074917;28;20013;-59
2023/06/05 00:09:57;;;;;;;7.03;2.58;;;16.50;99.90;;;;;;5073277;28;20024;-58
2023/06/05 00:12:25;;;;;;;8.52;1.60;;;16.70;99.90;;;;;;5056932;28;20425;-59
2023/06/05 00:14:52;;;;;;;4.47;1.13;;;16.70;99.90;;;;;;5068741;28;20344;-59
2023/06/05 00:17:20;;;;;;;7.68;1.13;;;16.80;99.90;;;;;;5071735;28;20028;-60
2023/06/05 00:19:47;;;;;;;4.85;1.17;;;16.90;99.90;;;;;;5082072;28;20029;-59
2023/06/05 00:22:15;;;;;;;8.57;2.00;;;16.90;99.90;;;;;;5072420;28;20167;-59
2023/06/05 00:24:42;;;;;;;5.07;1.30;;;17.10;99.90;;;;;;5072655;28;20033;-59
2023/06/05 00:27:10;;;;;;;4.05;1.08;;;17.20;99.90;;;;;;5081708;28;20384;-59
2023/06/05 00:29:37;;;;;;;3.10;1.30;;;17.40;99.90;;;;;;5070947;28;20489;-59
2023/06/05 00:32:05;;;;;;;13.20;1.35;;;17.60;99.90;;;;;;5084182;28;20054;-60
2023/06/05 00:34:32;;;;;;;8.98;2.58;;;17.70;99.90;;;;;;5083650;28;20055;-59
2023/06/05 00:37:00;;;;;;;7.35;1.33;;;17.50;99.90;;;;;;5075783;28;20061;-64
2023/06/05 00:39:27;;;;;;;6.55;1.15;;;17.40;99.90;;;;;;5069259;28;20056;-63
2023/06/05 00:41:55;;;;;;;7.00;0.90;;;17.40;99.90;;;;;;5085348;28;20016;-64
2023/06/05 00:44:22;;;;;;;5.90;1.10;;;17.40;99.90;;;;;;5084640;28;20032;-64
2023/06/05 00:46:52;;;;;;;6.18;1.50;;;17.40;99.90;;;;;;5086622;28;20107;-64
2023/06/05 00:49:20;;;;;;;3.58;1.00;;;17.50;99.90;;;;;;5081431;28;20020;-64
2023/06/05 00:51:49;;;;;;;5.78;1.00;;;17.30;99.90;;;;;;5075929;28;20481;-62
2023/06/05 00:54:18;;;;;;;9.50;1.95;;;17.30;99.90;;;;;;5079506;28;20127;-63
2023/06/05 00:56:46;;;;;;;4.65;1.23;;;17.40;99.90;;;;;;5082024;28;20027;-64
2023/06/05 00:59:14;;;;;;;7.68;0.90;;;17.50;99.90;;;;;;5073671;28;20025;-63
2023/06/05 01:01:42;;;;;;;3.67;1.10;;;17.50;99.90;;;;;;5084041;28;20038;-62
2023/06/05 01:04:10;;;;;;;5.93;1.17;;;17.40;99.90;;;;;;5065780;28;20107;-63
2023/06/05 01:06:41;;;;;;;4.32;1.05;;;17.50;99.90;;;;;;5078922;28;20066;-62
2023/06/05 01:09:10;;;;;;;7.97;1.08;;;17.60;99.90;;;;;;5081008;28;20050;-61
2023/06/05 01:11:54;;;;;;;3.72;0.93;;;17.60;99.90;;;;;;5069952;28;20035;-61
2023/06/05 01:14:30;;;;;;;7.15;1.30;;;17.70;99.90;;;;;;5080534;28;20025;-61
2023/06/05 01:17:03;;;;;;;3.35;1.00;;;17.80;99.90;;;;;;5078706;28;20523;-61
2023/06/05 01:19:31;;;;;;;5.55;1.20;;;17.80;99.90;;;;;;5074214;28;20485;-61
2023/06/05 01:22:02;;;;;;;2.30;1.00;;;17.90;99.90;;;;;;5062894;28;20052;-61
2023/06/05 01:24:30;;;;;;;9.38;1.23;;;17.90;99.90;;;;;;5081516;28;20028;-61
2023/06/05 01:27:19;;;;;;;11.20;2.00;;;18.00;99.90;;;;;;5081060;28;20029;-61
2023/06/05 01:30:00;;;;;;;5.55;1.38;;;17.90;99.90;;;;;;5080160;28;20016;-62
2023/06/05 01:32:44;;;;;;;9.05;1.77;;;17.90;99.90;;;;;;5061754;28;20488;-61
2023/06/05 01:35:17;;;;;;;6.83;1.53;;;17.80;99.90;;;;;;5081393;28;20165;-61
2023/06/05 01:37:48;;;;;;;6.45;1.38;;;17.60;99.90;;;;;;5082679;28;20285;-61
2023/06/05 01:40:22;;;;;;;7.18;1.75;;;17.50;99.90;;;;;;5076941;28;20027;-61
2023/06/05 01:42:51;;;;;;;8.32;1.52;;;17.30;99.90;;;;;;5084488;28;20024;-61
2023/06/05 01:45:19;;;;;;;8.35;1.77;;;17.30;99.90;;;;;;5072587;28;20051;-61
2023/06/05 01:47:48;;;;;;;7.13;1.98;;;17.10;99.90;;;;;;5076118;28;20032;-62
2023/06/05 01:50:16;;;;;;;7.32;1.42;;;17.00;99.90;;;;;;5079140;28;20031;-61
2023/06/05 01:52:47;;;;;;;4.82;1.70;;;16.90;99.90;;;;;;5072821;28;20040;-60
2023/06/05 01:55:20;;;;;;;7.40;2.00;;;16.80;99.90;;;;;;5071952;28;20154;-60
2023/06/05 01:57:48;;;;;;;6.47;1.70;;;16.60;99.90;;;;;;5067481;28;20484;-60
2023/06/05 02:00:18;;;;;;;6.22;1.58;;;16.50;99.90;;;;;;5078290;28;20024;-63
2023/06/05 02:02:47;;;;;;;10.43;2.80;;;16.30;99.90;;;;;;5075907;28;20515;-62
2023/06/05 02:05:17;;;;;;;7.47;2.42;;;16.10;99.90;;;;;;5075023;28;20025;-60
2023/06/05 02:07:53;;;;;;;9.75;2.92;;;15.60;99.90;;;;;;5077191;28;20028;-60
2023/06/05 02:10:20;;;;;;;10.63;2.83;;;15.30;99.90;;;;;;5061675;28;20109;-60
2023/06/05 02:12:48;;;;;;;3.55;1.50;;;15.10;99.90;;;;;;5075571;28;20025;-60
2023/06/05 02:15:16;;;;;;;8.15;1.13;;;14.90;99.90;;;;;;5078998;28;20498;-63
2023/06/05 02:17:53;;;;;;;6.32;1.30;;;14.60;99.90;;;;;;5055913;28;20028;-54
2023/06/05 02:20:24;;;;;;;2.75;0.60;;;14.50;99.90;;;;;;5079426;28;20138;-57
2023/06/05 02:22:51;;;;;;;4.60;1.83;;;14.40;99.90;;;;;;5080442;28;20024;-56
2023/06/05 02:25:20;;;;;;;6.10;1.30;;;14.30;99.90;;;;;;5083116;28;20028;-56
2023/06/05 02:27:48;;;;;;;3.40;1.20;;;14.30;99.90;;;;;;5084637;28;20643;-58
2023/06/05 02:30:16;;;;;;;13.05;1.73;;;14.20;99.90;;;;;;5082616;28;20032;-57
2023/06/05 02:32:46;;;;;;;8.55;1.40;;;14.30;99.90;;;;;;5081618;28;20032;-57
2023/06/05 02:35:14;;;;;;;9.32;1.35;;;14.20;99.90;;;;;;5061283;28;20492;-58
2023/06/05 02:37:46;;;;;;;6.78;1.90;;;14.30;99.90;;;;;;5074710;28;20030;-58
2023/06/05 02:40:15;;;;;;;9.55;1.80;;;14.40;99.90;;;;;;5073541;28;20025;-58
2023/06/05 02:42:42;;;;;;;8.48;2.33;;;14.50;99.90;;;;;;5075264;28;20020;-58
2023/06/05 02:45:10;;;;;;;7.07;1.63;;;14.60;99.90;;;;;;5070684;28;20033;-59
2023/06/05 02:47:38;;;;;;;5.25;1.67;;;14.80;99.90;;;;;;5055274;28;20016;-58
2023/06/05 02:50:06;;;;;;;7.43;1.20;;;15.00;99.90;;;;;;5076420;28;20020;-61
2023/06/05 02:52:35;;;;;;;3.72;1.33;;;15.30;99.90;;;;;;5080844;28;20032;-59
2023/06/05 02:55:05;;;;;;;7.88;1.70;;;15.60;99.90;;;;;;5079947;28;20025;-59
2023/06/05 02:57:41;;;;;;;8.18;1.25;;;16.00;99.90;;;;;;5073827;28;20023;-59
2023/06/05 03:00:14;;;;;;;5.20;0.80;;;16.30;99.90;;;;;;5072496;28;20032;-59
2023/06/05 03:02:42;;;;;;;2.70;1.00;;;16.50;99.90;;;;;;5071296;28;20163;-59
2023/06/05 03:05:10;;;;;;;5.35;0.75;;;16.60;99.90;;;;;;5078402;28;20558;-59
2023/06/05 03:07:38;;;;;;;3.65;0.93;;;16.80;99.90;;;;;;5082310;28;20031;-59
2023/06/05 03:10:06;;;;;;;5.38;0.90;;;16.90;99.90;;;;;;5079890;28;20020;-61
2023/06/05 03:12:33;;;;;;;3.85;0.95;;;17.10;99.90;;;;;;5071085;28;20381;-59
2023/06/05 03:15:01;;;;;;;4.85;1.20;;;17.20;99.90;;;;;;5071859;28;20171;-59
2023/06/05 03:17:28;;;;;;;4.30;1.00;;;17.20;99.90;;;;;;5086526;28;20051;-58
2023/06/05 03:19:56;;;;;;;3.58;0.93;;;17.40;99.90;;;;;;5072278;28;20025;-59
2023/06/05 03:22:24;;;;;;;4.93;1.67;;;17.50;99.90;;;;;;5063730;28;20176;-59
2023/06/05 03:24:52;;;;;;;2.63;1.00;;;17.50;99.90;;;;;;5074614;28;20025;-59
2023/06/05 03:27:19;;;;;;;5.35;1.63;;;17.50;99.90;;;;;;5065286;28;20028;-59
2023/06/05 03:29:47;;;;;;;3.13;1.08;;;17.50;99.90;;;;;;5065052;28;20032;-59
2023/06/05 03:32:14;;;;;;;5.13;1.33;;;17.50;99.90;;;;;;5074690;28;20020;-59
2023/06/05 03:34:42;;;;;;;4.40;2.03;;;17.50;99.90;;;;;;5070373;28;20492;-58
2023/06/05 03:37:10;;;;;;;6.70;1.80;;;17.50;99.90;;;;;;5073271;28;20032;-59
2023/06/05 03:39:37;;;;;;;5.78;1.77;;;17.50;99.90;;;;;;5071451;28;20039;-59
2023/06/05 03:42:06;;;;;;;6.68;1.50;;;17.70;99.90;;;;;;5073303;28;20107;-60
2023/06/05 03:44:34;;;;;;;5.75;1.42;;;17.80;99.90;;;;;;5074248;28;20118;-59
2023/06/05 03:47:01;;;;;;;3.92;1.35;;;18.10;99.90;;;;;;5074625;28;20120;-59
2023/06/05 03:49:29;;;;;;;4.82;1.67;;;18.40;99.90;;;;;;5068462;28;20020;-59
2023/06/05 03:52:00;;;;;;;1.42;0.90;;;18.60;99.90;;;;;;5071813;28;20058;-59
2023/06/05 03:54:28;;;;;;;6.57;1.15;;;18.60;99.90;;;;;;5080214;28;21797;-60
2023/06/05 03:56:58;;;;;;;4.47;1.60;;;18.70;99.90;;;;;;5072100;28;20354;-59
2023/06/05 03:59:28;;;;;;;4.85;1.13;;;18.50;99.90;;;;;;5077718;28;20485;-59
2023/06/05 04:01:56;;;;;;;4.43;1.08;;;18.30;99.90;;;;;;5070472;28;20032;-59
2023/06/05 04:04:24;;;;;;;8.63;1.05;;;18.30;99.90;;;;;;5078968;28;20025;-59
2023/06/05 04:06:54;;;;;;;6.32;1.38;;;18.20;99.90;;;;;;5074173;28;20107;-61
2023/06/05 04:09:22;;;;;;;6.10;1.00;;;18.10;99.90;;;;;;5070385;28;20129;-60
2023/06/05 04:11:50;;;;;;;5.85;0.90;;;18.00;99.90;;;;;;5074467;28;20048;-59
2023/06/05 04:14:17;;;;;;;7.45;1.10;;;17.90;99.90;;;;;;5068422;28;20074;-58
2023/06/05 04:16:45;;;;;;;4.53;1.08;;;17.90;99.90;;;;;;5071822;28;20029;-58
2023/06/05 04:19:13;;;;;;;4.53;1.70;;;17.90;99.90;;;;;;5076519;28;20039;-59
2023/06/05 04:21:41;;;;;;;5.10;1.17;;;17.90;99.90;;;;;;5076006;28;20025;-60
2023/06/05 04:24:12;;;;;;;7.55;1.70;;;18.00;99.90;;;;;;5079458;28;20030;-59
2023/06/05 04:26:45;;;;;;;3.05;0.95;;;17.90;99.90;;;;;;5073119;28;20064;-60
2023/06/05 04:29:15;;;;;;;5.97;1.13;;;18.00;99.90;;;;;;5066542;28;20021;-59
2023/06/05 04:31:44;;;;;;;3.47;0.85;;;18.00;99.90;;;;;;5069681;28;20115;-58
2023/06/05 04:34:12;;;;;;;5.38;1.00;;;18.10;99.90;;;;;;5078715;28;20056;-59
2023/06/05 04:36:43;;;;;;;4.05;1.40;;;18.00;99.90;;;;;;5049725;28;20047;-60
2023/06/05 04:39:19;;;;;;;4.53;0.93;;;17.90;99.90;;;;;;5049570;28;20028;-59
2023/06/05 04:41:47;;;;;;;7.63;1.05;;;17.90;99.90;;;;;;5072951;28;20032;-59
2023/06/05 04:44:18;;;;;;;10.43;1.45;;;17.80;99.90;;;;;;5074480;28;20020;-58
2023/06/05 04:46:46;;;;;;;4.40;1.88;;;17.70;99.90;;;;;;5067031;28;20117;-60
2023/06/05 04:49:16;;;;;;;5.50;1.08;;;17.70;99.90;;;;;;5076744;28;20108;-58
2023/06/05 04:51:44;;;;;;;6.75;1.00;;;17.50;99.90;;;;;;5058523;28;20385;-58
2023/06/05 04:54:11;;;;;;;8.95;1.05;;;17.40;99.90;;;;;;5078345;28;20028;-58
2023/06/05 04:56:39;;;;;;;9.43;1.00;;;17.30;99.90;;;;;;5070235;28;20040;-56
2023/06/05 04:59:07;;;;;;;4.82;1.00;;;17.20;99.90;;;;;;5085102;28;20024;-57
2023/06/05 05:01:34;;;;;;;7.15;1.23;;;17.30;99.90;;;;;;5085889;28;20070;-58
2023/06/05 05:04:02;;;;;;;7.43;1.30;;;17.30;99.90;;;;;;5073962;28;20019;-59
2023/06/05 05:06:31;;;;;;;4.13;0.90;;;17.40;99.90;;;;;;5075334;28;20028;-58
2023/06/05 05:08:58;;;;;;;5.13;1.60;;;17.40;99.90;;;;;;5078294;28;20081;-58
2023/06/05 05:11:26;;;;;;;9.27;1.10;;;17.50;99.90;;;;;;5073016;28;20115;-58
2023/06/05 05:13:54;;;;;;;6.03;1.30;;;17.50;99.90;;;;;;5071916;28;20378;-56
2023/06/05 05:16:22;;;;;;;8.68;1.20;;;17.50;99.90;;;;;;5069010;28;20032;-59
2023/06/05 05:18:49;;;;;;;3.15;1.35;;;17.50;99.90;;;;;;5071161;28;20036;-58
2023/06/05 05:21:18;;;;;;;4.32;0.88;;;17.50;99.90;;;;;;5067745;28;20109;-59
2023/06/05 05:23:45;;;;;;;2.65;0.90;;;17.40;99.90;;;;;;5075474;28;20025;-64
2023/06/05 05:26:13;;;;;;;3.45;0.60;;;17.40;99.90;;;;;;5067881;28;20040;-58
2023/06/05 05:28:40;;;;;;;3.88;1.20;;;17.30;99.90;;;;;;5074944;28;20027;-57
2023/06/05 05:31:07;;;;;;;4.57;0.95;;;17.30;99.90;;;;;;5075920;28;20568;-56
2023/06/05 05:33:35;;;;;;;6.45;0.95;;;17.30;99.90;;;;;;5076214;28;20645;-58
2023/06/05 05:36:03;;;;;;;3.20;1.00;;;17.20;99.90;;;;;;5080614;28;20030;-58
2023/06/05 05:38:31;;;;;;;4.40;1.10;;;17.20;99.90;;;;;;5060824;28;20535;-55
2023/06/05 05:40:59;;;;;;;5.40;0.80;;;17.10;99.90;;;;;;5072389;28;20024;-55
2023/06/05 05:43:26;;;;;;;5.65;1.40;;;17.00;99.90;;;;;;5060180;28;20476;-57
2023/06/05 05:45:54;;;;;;;4.88;1.48;;;16.90;99.90;;;;;;5076754;28;20039;-55
2023/06/05 05:48:22;;;;;;;5.97;1.48;;;16.90;99.90;;;;;;5080419;28;20024;-56
2023/06/05 05:50:50;;;;;;;4.47;0.65;;;16.80;99.90;;;;;;5078468;28;20067;-55
2023/06/05 05:53:18;;;;;;;3.67;0.90;;;16.70;99.90;;;;;;5077277;28;20059;-58
2023/06/05 05:55:46;;;;;;;4.80;1.23;;;16.50;99.90;;;;;;5083892;28;20090;-61
2023/06/05 05:58:13;;;;;;;5.15;0.80;;;16.50;99.90;;;;;;5078056;28;20058;-56
2023/06/05 06:00:41;;;;;;;4.13;1.25;;;16.30;99.90;;;;;;5080396;28;20035;-56
2023/06/05 06:03:08;;;;;;;8.93;0.98;;;16.30;99.90;;;;;;5084099;28;20020;-56
2023/06/05 06:05:37;;;;;;;6.43;0.98;;;16.30;99.90;;;;;;5074642;28;20377;-59
2023/06/05 06:08:04;;;;;;;7.55;1.10;;;16.40;99.90;;;;;;5054219;28;20028;-58
2023/06/05 06:10:32;;;;;;;2.78;0.95;;;16.40;99.90;;;;;;5072650;28;20024;-59
2023/06/05 06:13:00;;;;;;;5.18;1.00;;;16.40;99.90;;;;;;5081318;28;20524;-58
2023/06/05 06:15:28;;;;;;;8.27;1.10;;;16.40;99.90;;;;;;5078573;28;20028;-57
2023/06/05 06:17:56;;;;;;;3.20;0.85;;;16.30;99.90;;;;;;5075330;28;20016;-57
2023/06/05 06:20:24;;;;;;;9.38;1.13;;;16.30;99.90;;;;;;5060842;28;20035;-57
2023/06/05 06:22:51;;;;;;;10.48;1.08;;;16.30;99.90;;;;;;5065364;28;20435;-58
2023/06/05 06:25:21;;;;;;;3.60;0.80;;;16.20;99.90;;;;;;5079815;28;20051;-57
2023/06/05 06:27:49;;;;;;;3.40;0.80;;;16.20;99.90;;;;;;5085517;28;20066;-58
2023/06/05 06:30:17;;;;;;;3.50;1.10;;;16.20;99.90;;;;;;5082635;28;20115;-59
2023/06/05 06:32:44;;;;;;;4.70;0.80;;;16.20;99.90;;;;;;5089805;28;20448;-55
2023/06/05 06:35:13;;;;;;;4.93;1.00;;;16.10;99.90;;;;;;5077408;28;20020;-57
2023/06/05 06:37:41;;;;;;;4.07;1.13;;;16.00;99.90;;;;;;5072366;28;20012;-58
2023/06/05 06:40:10;;;;;;;2.78;0.85;;;16.00;99.90;;;;;;5075541;28;20051;-56
2023/06/05 06:42:38;;;;;;;4.18;0.85;;;15.90;99.90;;;;;;5062543;28;20586;-58
2023/06/05 06:45:06;;;;;;;8.27;1.02;;;15.80;99.90;;;;;;5078240;28;20071;-57
2023/06/05 06:47:33;;;;;;;8.48;1.10;;;15.70;99.90;;;;;;5058484;28;20123;-58
2023/06/05 06:50:01;;;;;;;3.40;0.80;;;15.70;99.90;;;;;;5076795;28;20016;-60
2023/06/05 06:52:28;;;;;;;4.22;0.80;;;15.60;99.90;;;;;;5076415;28;20021;-56
2023/06/05 06:54:56;;;;;;;5.07;0.85;;;15.50;99.90;;;;;;5080842;28;20480;-55
2023/06/05 06:57:23;;;;;;;5.47;1.33;;;15.50;99.90;;;;;;5074725;28;20159;-56
2023/06/05 06:59:53;;;;;;;2.42;0.55;;;15.50;99.90;;;;;;5076219;28;20063;-57
2023/06/05 07:02:23;;;;;;;10.25;1.08;;;15.40;99.90;;;;;;5079984;28;20077;-58
2023/06/05 07:04:50;;;;;;;3.03;0.70;;;15.30;99.90;;;;;;5071653;28;20021;-57
2023/06/05 07:07:21;;;;;;;2.75;0.60;;;15.30;99.90;;;;;;5054614;28;20056;-56
2023/06/05 07:09:53;;;;;;;3.63;0.90;;;15.20;99.90;;;;;;5067547;28;20036;-57
2023/06/05 07:12:22;;;;;;;2.80;0.68;;;15.20;99.90;;;;;;5054703;28;20024;-53
2023/06/05 07:14:51;;;;;;;4.40;0.98;;;15.20;99.90;;;;;;5075473;28;20051;-55
2023/06/05 07:17:18;;;;;;;6.70;1.23;;;15.10;99.90;;;;;;5082638;28;20028;-51
2023/06/05 07:19:46;;;;;;;8.10;0.90;;;15.10;99.90;;;;;;5072419;28;20065;-58
2023/06/05 07:22:13;;;;;;;5.32;0.90;;;15.10;99.90;;;;;;5078442;28;20032;-52
2023/06/05 07:24:42;;;;;;;4.60;0.95;;;15.00;99.90;;;;;;5074160;28;20023;-49
2023/06/05 07:27:10;;;;;;;5.03;0.77;;;15.00;99.90;;;;;;5072105;28;20060;-54
2023/06/05 07:29:37;;;;;;;2.30;0.40;;;14.90;99.90;;;;;;5053885;28;20024;-53
2023/06/05 07:32:06;;;;;;;2.53;0.47;;;14.90;99.90;;;;;;5055647;28;20208;-53
2023/06/05 07:34:34;;;;;;;4.32;1.15;;;14.90;99.90;;;;;;5073895;28;20028;-51
2023/06/05 07:37:02;;;;;;;6.40;2.10;;;14.90;99.90;;;;;;5074286;28;20615;-49
2023/06/05 07:39:30;;;;;;;3.35;1.13;;;14.80;99.90;;;;;;5074896;28;20035;-56
2023/06/05 07:41:57;;;;;;;3.22;1.02;;;14.80;99.90;;;;;;5053136;28;20024;-51
2023/06/05 07:44:25;;;;;;;7.75;2.35;;;14.80;99.90;;;;;;5055699;28;20485;-55
2023/06/05 07:46:53;;;;;;;2.28;1.00;;;14.70;99.90;;;;;;5078873;28;20098;-55
2023/06/05 07:49:23;;;;;;;2.15;0.75;;;14.80;99.90;;;;;;5057322;28;20024;-55
2023/06/05 07:51:51;;;;;;;4.65;0.80;;;14.80;99.90;;;;;;5082048;28;20073;-53
2023/06/05 07:54:19;;;;;;;4.45;1.08;;;14.90;99.90;;;;;;5051080;28;20105;-54
2023/06/05 07:56:53;;;;;;;6.63;1.20;;;14.90;99.90;;;;;;5081287;28;20506;-54
2023/06/05 07:59:32;;;;;;;4.57;0.73;;;15.00;99.90;;;;;;5052775;28;20122;-54
2023/06/05 08:02:00;;;;;;;3.58;0.77;;;15.00;99.90;;;;;;5069577;28;20448;-51
2023/06/05 08:04:28;;;;;;;4.15;1.02;;;15.00;99.90;;;;;;5076381;28;20037;-53
2023/06/05 08:06:56;;;;;;;4.72;1.40;;;14.90;99.90;;;;;;5074074;28;20075;-52
2023/06/05 08:09:23;;;;;;;8.32;0.98;;;14.90;99.90;;;;;;5075930;28;20615;-50
2023/06/05 08:11:51;;;;;;;6.25;1.10;;;14.90;99.90;;;;;;5072733;28;20183;-53
2023/06/05 08:14:18;;;;;;;3.95;0.80;;;14.90;99.90;;;;;;5072130;28;20061;-51
2023/06/05 08:16:46;;;;;;;3.08;0.80;;;14.90;99.90;;;;;;5066389;28;20145;-57
2023/06/05 08:19:13;;;;;;;7.60;0.88;;;14.80;99.90;;;;;;5068927;28;20097;-51
2023/06/05 08:21:40;;;;;;;3.63;1.20;;;14.80;99.90;;;;;;5052193;28;20157;-53
2023/06/05 08:24:08;;;;;;;4.20;0.88;;;14.80;99.90;;;;;;5074051;28;20030;-51
2023/06/05 08:26:36;;;;;;;20.95;6.75;;;14.70;99.90;;;;;;5069677;28;20090;-53
2023/06/05 08:29:03;;;;;;;15.45;6.78;;;14.60;99.90;;;;;;5075978;28;20027;-52
2023/06/05 08:31:33;;;;;;;12.55;5.90;;;14.60;99.90;;;;;;5073835;28;20140;-51
2023/06/05 08:34:01;;;;;;;7.75;3.03;;;14.40;99.90;;;;;;5072639;28;20477;-54
2023/06/05 08:36:32;;;;;;;6.53;3.47;;;14.30;99.90;;;;;;5072154;28;20120;-52
2023/06/05 08:39:03;;;;;;;8.05;2.25;;;14.10;99.90;;;;;;5076725;28;20392;-50
2023/06/05 08:41:32;;;;;;;4.40;1.85;;;13.90;99.90;;;;;;5070109;28;20370;-50
2023/06/05 08:43:59;;;;;;;4.40;1.80;;;13.70;99.90;;;;;;5074205;28;20020;-59
2023/06/05 08:46:34;;;;;;;10.65;1.92;;;13.50;99.90;;;;;;5054879;28;20041;-50
2023/06/05 08:49:11;;;;;;;9.82;2.45;;;13.30;99.90;;;;;;5074631;28;20036;-54
2023/06/05 08:51:40;;;;;;;7.25;2.00;;;13.10;99.90;;;;;;5075459;28;20075;-52
2023/06/05 08:54:12;;;;;;;3.13;1.48;;;12.90;99.90;;;;;;5056690;28;20676;-54
2023/06/05 08:56:43;;;;;;;3.03;1.30;;;12.60;99.90;;;;;;5070383;28;20101;-52
2023/06/05 08:59:14;;;;;;;4.47;1.30;;;12.40;99.90;;;;;;5048750;28;20028;-54
2023/06/05 09:01:43;;;;;;;3.17;1.20;;;12.20;99.90;;;;;;5074242;28;20028;-54
2023/06/05 09:04:11;;;;;;;4.07;1.60;;;12.10;99.90;;;;;;5075583;28;20020;-53
2023/06/05 09:06:39;;;;;;;3.53;1.10;;;12.00;99.90;;;;;;5073075;28;20036;-53
2023/06/05 09:09:07;;;;;;;4.10;1.10;;;11.90;99.90;;;;;;5068802;28;20385;-52
2023/06/05 09:11:36;;;;;;;3.97;1.30;;;11.70;99.90;;;;;;5070137;28;20497;-52
2023/06/05 09:14:04;;;;;;;4.88;1.50;;;11.60;99.90;;;;;;5073809;28;20024;-56
2023/06/05 09:16:38;;;;;;;3.88;1.63;;;11.50;99.90;;;;;;5066807;28;20029;-52
2023/06/05 09:19:06;;;;;;;4.07;1.88;;;11.30;99.90;;;;;;5076214;28;20020;-50
2023/06/05 09:21:35;;;;;;;3.28;1.35;;;11.20;99.90;;;;;;5070606;28;20378;-51
2023/06/05 09:24:19;;;;;;;2.55;1.30;;;11.20;99.90;;;;;;5055655;28;20012;-52
2023/06/05 09:26:56;;;;;;;3.83;1.33;;;11.20;99.90;;;;;;5074591;28;20036;-52
2023/06/05 09:29:35;;;;;;;3.72;1.02;;;11.20;99.90;;;;;;5077661;28;20026;-52
2023/06/05 09:32:05;;;;;;;6.15;1.20;;;11.30;99.90;;;;;;5072270;28;20028;-54
2023/06/05 09:34:40;;;;;;;4.28;1.60;;;11.20;99.90;;;;;;5074180;28;20543;-54
2023/06/05 09:37:10;;;;;;;7.78;2.03;;;11.20;99.90;;;;;;5070123;28;20024;-53
2023/06/05 09:39:40;;;;;;;9.30;2.58;;;11.10;99.90;;;;;;5069487;28;20038;-54
2023/06/05 09:42:08;;;;;;;6.43;2.55;;;11.10;99.90;;;;;;5071464;28;20032;-55
2023/06/05 09:44:37;;;;;;;5.75;1.80;;;11.00;99.90;;;;;;5053577;28;20056;-55
2023/06/05 09:47:08;;;;;;;9.90;1.75;;;11.00;99.90;;;;;;5076892;28;20093;-51
2023/06/05 09:49:41;;;;;;;7.93;1.42;;;10.90;99.90;;;;;;5074234;28;20025;-55
2023/06/05 09:52:10;;;;;;;4.35;1.70;;;10.80;99.90;;;;;;5065696;28;20025;-50
2023/06/05 09:54:44;;;;;;;7.38;1.95;;;10.70;99.90;;;;;;5037972;28;20567;-51
2023/06/05 09:57:16;;;;;;;5.18;1.50;;;10.70;99.90;;;;;;5046838;28;20219;-53
2023/06/05 09:59:56;;;;;;;5.80;1.83;;;10.60;99.90;;;;;;5041875;28;20029;-52
2023/06/05 10:02:34;;;;;;;7.80;2.38;;;10.50;99.90;;;;;;5032416;28;20551;-52
2023/06/05 10:05:04;;;;;;;8.40;2.55;;;10.50;99.90;;;;;;5028905;28;20038;-53
2023/06/05 10:07:32;;;;;;;6.20;2.20;;;10.60;99.90;;;;;;5041075;28;20049;-53
2023/06/05 10:10:00;;;;;;;9.20;2.90;;;10.60;99.90;;;;;;5030628;28;20144;-53
2023/06/05 10:12:28;;;;;;;7.53;2.83;;;10.70;99.90;;;;;;5034497;28;20107;-52
2023/06/05 10:14:56;;;;;;;14.73;4.40;;;10.70;99.90;;;;;;5028383;28;20088;-52
2023/06/05 10:17:24;;;;;;;10.68;3.22;;;10.80;99.90;;;;;;5046069;28;20025;-55
2023/06/05 10:19:52;;;;;;;13.07;4.43;;;11.00;99.90;;;;;;5033704;28;20029;-49
2023/06/05 10:22:20;;;;;;;9.52;3.72;;;11.10;99.90;;;;;;5032825;28;20024;-50
2023/06/05 10:24:59;;;;;;;14.93;5.07;;;11.20;99.90;;;;;;5040180;28;20024;-54
2023/06/05 10:27:50;;;;;;;11.15;4.32;;;11.20;99.90;;;;;;5029698;28;20037;-52
2023/06/05 10:30:49;;;;;;;10.40;4.70;;;11.30;99.90;;;;;;5038027;28;20032;-55
2023/06/05 10:33:43;;;;;;;14.27;4.53;;;11.40;99.90;;;;;;5022002;28;20042;-54
2023/06/05 10:36:29;;;;;;;14.90;4.38;;;11.50;99.90;;;;;;5030452;28;20132;-52
2023/06/05 10:38:57;;;;;;;10.00;4.60;;;11.60;99.90;;;;;;5032674;28;20033;-51
2023/06/05 10:41:25;;;;;;;8.02;4.13;;;11.60;99.90;;;;;;5035149;28;20021;-47
2023/06/05 10:43:55;;;;;;;7.55;3.95;;;11.60;99.90;;;;;;5028335;28;20036;-48
2023/06/05 10:46:31;;;;;;;11.40;4.93;;;11.60;99.90;;;;;;5036998;28;20608;-56
2023/06/05 10:49:21;;;;;;;12.15;5.38;;;11.50;99.90;;;;;;5030131;28;20771;-57
2023/06/05 10:51:51;;;;;;;16.20;5.43;;;11.50;99.90;;;;;;5026200;28;20468;-54
2023/06/05 10:54:24;;;;;;;17.77;6.60;;;11.50;99.90;;;;;;5063368;28;20040;-53
2023/06/05 10:57:03;;;;;;;15.93;7.53;;;11.50;99.90;;;;;;5068936;28;20035;-54
2023/06/05 10:59:35;;;;;;;21.90;6.22;;;11.60;99.90;;;;;;5056399;28;20481;-52
2023/06/05 11:02:14;;;;;;;18.00;6.05;;;11.60;99.90;;;;;;5056271;28;20024;-50
2023/06/05 11:04:48;;;;;;;14.65;6.57;;;11.60;99.90;;;;;;5061272;28;20032;-49
2023/06/05 11:07:18;;;;;;;18.23;5.20;;;11.50;99.90;;;;;;5068064;28;20480;-56
2023/06/05 11:10:07;;;;;;;23.02;5.70;;;11.50;99.90;;;;;;5075782;28;20024;-52
2023/06/05 11:12:40;;;;;;;31.15;5.40;;;11.50;99.90;;;;;;5070342;28;20024;-50
2023/06/05 11:15:12;;;;;;;17.92;4.57;;;11.60;99.90;;;;;;5067725;28;20059;-51
2023/06/05 11:17:47;;;;;;;20.67;4.20;;;11.60;99.90;;;;;;5065921;28;20020;-53
2023/06/05 11:20:33;;;;;;;16.45;3.42;;;11.70;99.90;;;;;;5054134;28;20111;-54
2023/06/05 11:23:00;;;;;;;20.88;3.38;;;11.70;99.90;;;;;;5053860;28;20078;-56
2023/06/05 11:25:32;;;;;;;29.50;3.60;;;11.80;99.90;;;;;;5051499;28;20036;-52
2023/06/05 11:28:01;;;;;;;20.48;3.92;;;11.70;99.90;;;;;;5068895;28;20025;-58
2023/06/05 11:30:34;;;;;;;20.83;3.97;;;11.70;99.90;;;;;;5069071;28;20805;-54
2023/06/05 11:33:09;;;;;;;13.27;3.30;;;11.70;99.90;;;;;;5049397;28;20032;-57
2023/06/05 11:35:37;;;;;;;15.48;3.15;;;11.70;99.90;;;;;;5070293;28;20586;-49
2023/06/05 11:38:22;;;;;;;9.85;3.53;;;11.80;99.90;;;;;;5076460;28;20130;-54
2023/06/05 11:40:50;;;;;;;17.85;3.28;;;11.80;99.90;;;;;;5072317;28;20036;-53
2023/06/05 11:43:18;;;;;;;8.90;3.22;;;11.80;99.90;;;;;;5047582;28;20037;-57
2023/06/05 11:45:57;;;;;;;18.17;3.75;;;11.80;99.90;;;;;;5068552;28;20040;-53
2023/06/05 11:48:25;;;;;;;18.23;4.70;;;11.80;99.90;;;;;;5070978;28;20055;-55
2023/06/05 11:51:00;;;;;;;29.50;4.00;;;11.80;99.90;;;;;;5072208;28;20032;-56
2023/06/05 11:53:29;;;;;;;25.48;6.15;;;11.90;99.90;;;;;;5080545;28;20048;-55
2023/06/05 11:58:34;;;;;;;12.10;3.55;;;12.00;99.90;;;;;;5067376;28;20032;-54
2023/06/05 12:01:31;;;;;;;12.93;3.40;;;12.10;99.90;;;;;;5072762;28;20047;-51
2023/06/05 12:04:08;;;;;;;10.70;2.85;;;12.10;99.90;;;;;;5072804;28;20501;-54
2023/06/05 12:06:43;;;;;;;18.25;4.18;;;12.20;99.90;;;;;;5070218;28;20040;-52
2023/06/05 12:09:15;;;;;;;12.10;3.97;;;12.20;99.90;;;;;;5070494;28;20020;-51
2023/06/05 12:11:46;;;;;;;6.55;2.90;;;12.30;99.90;;;;;;5073500;28;20169;-53
2023/06/05 12:14:29;;;;;;;5.38;3.08;;;12.40;99.90;;;;;;5082333;28;20556;-54
2023/06/05 12:16:56;;;;;;;15.23;2.95;;;12.40;99.90;;;;;;5075589;28;20028;-53
2023/06/05 12:19:24;;;;;;;8.93;2.92;;;12.30;99.90;;;;;;5079452;28;20020;-58
2023/06/05 12:22:01;;;;;;;13.35;2.65;;;12.20;99.90;;;;;;5076616;28;20020;-51
2023/06/05 12:24:29;;;;;;;7.55;2.45;;;12.20;99.90;;;;;;5073961;28;20128;-52
2023/06/05 12:26:59;;;;;;;12.60;2.55;;;12.20;99.90;;;;;;5067867;28;20040;-50
2023/06/05 12:29:29;;;;;;;13.88;3.20;;;12.20;99.90;;;;;;5067549;28;20032;-52
2023/06/05 12:31:57;;;;;;;10.48;3.45;;;12.30;99.90;;;;;;5068043;28;20028;-50
2023/06/05 12:34:57;;;;;;;12.23;2.78;;;12.30;99.90;;;;;;5067487;28;20025;-53
2023/06/05 12:37:31;;;;;;;13.32;3.15;;;12.30;99.90;;;;;;5025898;28;20060;-57
2023/06/05 12:40:00;;;;;;;6.70;2.95;;;12.40;99.90;;;;;;5066934;28;20033;-51
2023/06/05 12:42:28;;;;;;;17.88;2.83;;;12.50;99.90;;;;;;5079941;28;20108;-51
2023/06/05 12:44:56;;;;;;;6.68;2.08;;;12.50;99.90;;;;;;5069990;28;20493;-53
2023/06/05 12:47:23;;;;;;;15.35;3.05;;;12.60;99.90;;;;;;5079585;28;20036;-52
2023/06/05 12:49:51;;;;;;;10.05;2.20;;;12.60;99.90;;;;;;5078150;28;20025;-57
2023/06/05 12:52:18;;;;;;;5.70;2.10;;;12.60;99.90;;;;;;5079236;28;20028;-53
2023/06/05 12:54:46;;;;;;;7.30;2.00;;;12.60;99.90;;;;;;5081711;28;20028;-53
2023/06/05 12:57:14;;;;;;;8.93;2.05;;;12.60;99.90;;;;;;5081300;28;20737;-52
2023/06/05 12:59:42;;;;;;;8.77;2.40;;;12.60;99.90;;;;;;5067526;28;20024;-51
2023/06/05 13:02:09;;;;;;;5.28;2.17;;;12.70;99.90;;;;;;5071728;28;20028;-53